sensor_id;sensor_type;location;lat;lon;timestamp;P1;durP1;ratioP1;P2;durP2;ratioP2
31336;SDS011;22846;42.654;23.314;2023-04-04T00:01:51;10.20;;;7.68;;
31336;SDS011;22846;42.654;23.314;2023-04-04T00:04:16;10.18;;;7.50;;
31336;SDS011;22846;42.654;23.314;2023-04-04T00:06:41;7.50;;;6.30;;
31336;SDS011;22846;42.654;23.314;2023-04-04T00:09:10;8.98;;;6.90;;
31336;SDS011;22846;42.654;23.314;2023-04-04T00:11:36;8.52;;;6.82;;
31336;SDS011;22846;42.654;23.314;2023-04-04T00:14:02;9.15;;;6.70;;
31336;SDS011;22846;42.654;23.314;2023-04-04T00:16:29;11.07;;;7.28;;
31336;SDS011;22846;42.654;23.314;2023-04-04T00:18:54;8.32;;;6.90;;
31336;SDS011;22846;42.654;23.314;2023-04-04T00:21:20;8.82;;;6.63;;
31336;SDS011;22846;42.654;23.314;2023-04-04T00:23:45;8.95;;;6.30;;
31336;SDS011;22846;42.654;23.314;2023-04-04T00:26:11;8.27;;;6.53;;
31336;SDS011;22846;42.654;23.314;2023-04-04T00:28:36;9.25;;;6.35;;
31336;SDS011;22846;42.654;23.314;2023-04-04T00:31:01;7.40;;;6.18;;
31336;SDS011;22846;42.654;23.314;2023-04-04T00:33:27;6.88;;;5.50;;
31336;SDS011;22846;42.654;23.314;2023-04-04T00:35:52;7.85;;;5.95;;
31336;SDS011;22846;42.654;23.314;2023-04-04T00:38:18;9.43;;;6.25;;
31336;SDS011;22846;42.654;23.314;2023-04-04T00:40:44;7.15;;;5.55;;
31336;SDS011;22846;42.654;23.314;2023-04-04T00:43:12;7.53;;;6.03;;
31336;SDS011;22846;42.654;23.314;2023-04-04T00:45:38;6.45;;;5.47;;
31336;SDS011;22846;42.654;23.314;2023-04-04T00:48:04;7.30;;;5.60;;
31336;SDS011;22846;42.654;23.314;2023-04-04T00:50:30;7.13;;;5.70;;
31336;SDS011;22846;42.654;23.314;2023-04-04T00:52:56;7.63;;;5.75;;
31336;SDS011;22846;42.654;23.314;2023-04-04T00:55:22;6.40;;;5.05;;
31336;SDS011;22846;42.654;23.314;2023-04-04T00:57:47;7.55;;;5.97;;
31336;SDS011;22846;42.654;23.314;2023-04-04T01:00:13;6.53;;;5.30;;
31336;SDS011;22846;42.654;23.314;2023-04-04T01:02:40;6.63;;;5.18;;
31336;SDS011;22846;42.654;23.314;2023-04-04T01:05:05;6.95;;;5.25;;
31336;SDS011;22846;42.654;23.314;2023-04-04T01:07:33;6.57;;;5.25;;
31336;SDS011;22846;42.654;23.314;2023-04-04T01:09:59;6.95;;;5.20;;
31336;SDS011;22846;42.654;23.314;2023-04-04T01:12:26;7.68;;;5.05;;
31336;SDS011;22846;42.654;23.314;2023-04-04T01:14:52;5.63;;;4.80;;
31336;SDS011;22846;42.654;23.314;2023-04-04T01:17:18;7.40;;;4.97;;
31336;SDS011;22846;42.654;23.314;2023-04-04T01:22:21;6.28;;;4.57;;
31336;SDS011;22846;42.654;23.314;2023-04-04T01:24:47;5.88;;;4.63;;
31336;SDS011;22846;42.654;23.314;2023-04-04T01:27:13;6.20;;;4.85;;
31336;SDS011;22846;42.654;23.314;2023-04-04T01:29:40;5.38;;;4.40;;
31336;SDS011;22846;42.654;23.314;2023-04-04T01:32:12;5.47;;;4.45;;
31336;SDS011;22846;42.654;23.314;2023-04-04T01:40:32;5.10;;;4.45;;
31336;SDS011;22846;42.654;23.314;2023-04-04T01:43:01;4.63;;;3.90;;
31336;SDS011;22846;42.654;23.314;2023-04-04T01:45:27;5.65;;;4.47;;
31336;SDS011;22846;42.654;23.314;2023-04-04T01:47:53;5.47;;;4.05;;
31336;SDS011;22846;42.654;23.314;2023-04-04T01:50:20;4.82;;;4.05;;
31336;SDS011;22846;42.654;23.314;2023-04-04T01:52:46;4.90;;;3.90;;
31336;SDS011;22846;42.654;23.314;2023-04-04T01:55:12;4.47;;;3.80;;
31336;SDS011;22846;42.654;23.314;2023-04-04T01:57:37;4.70;;;3.70;;
31336;SDS011;22846;42.654;23.314;2023-04-04T02:00:03;4.80;;;3.67;;
31336;SDS011;22846;42.654;23.314;2023-04-04T02:02:29;4.18;;;3.47;;
31336;SDS011;22846;42.654;23.314;2023-04-04T02:04:55;4.43;;;3.70;;
31336;SDS011;22846;42.654;23.314;2023-04-04T02:07:20;3.90;;;3.13;;
31336;SDS011;22846;42.654;23.314;2023-04-04T02:09:46;4.65;;;3.53;;
31336;SDS011;22846;42.654;23.314;2023-04-04T02:12:11;4.45;;;3.58;;
31336;SDS011;22846;42.654;23.314;2023-04-04T02:14:36;5.95;;;3.65;;
31336;SDS011;22846;42.654;23.314;2023-04-04T02:17:02;4.70;;;3.58;;
31336;SDS011;22846;42.654;23.314;2023-04-04T02:19:27;4.38;;;3.58;;
31336;SDS011;22846;42.654;23.314;2023-04-04T02:21:52;3.83;;;3.28;;
31336;SDS011;22846;42.654;23.314;2023-04-04T02:24:18;3.72;;;3.15;;
31336;SDS011;22846;42.654;23.314;2023-04-04T02:26:43;4.15;;;3.47;;
31336;SDS011;22846;42.654;23.314;2023-04-04T02:29:09;4.15;;;3.05;;
31336;SDS011;22846;42.654;23.314;2023-04-04T02:31:34;3.60;;;3.00;;
31336;SDS011;22846;42.654;23.314;2023-04-04T02:34:00;4.68;;;3.50;;
31336;SDS011;22846;42.654;23.314;2023-04-04T02:36:25;3.88;;;3.03;;
31336;SDS011;22846;42.654;23.314;2023-04-04T02:38:51;4.25;;;3.13;;
31336;SDS011;22846;42.654;23.314;2023-04-04T02:41:17;3.65;;;3.00;;
31336;SDS011;22846;42.654;23.314;2023-04-04T02:43:42;4.20;;;3.10;;
31336;SDS011;22846;42.654;23.314;2023-04-04T02:46:07;3.63;;;2.92;;
31336;SDS011;22846;42.654;23.314;2023-04-04T02:48:33;3.03;;;2.72;;
31336;SDS011;22846;42.654;23.314;2023-04-04T02:50:59;4.00;;;3.08;;
31336;SDS011;22846;42.654;23.314;2023-04-04T02:53:25;4.03;;;3.05;;
31336;SDS011;22846;42.654;23.314;2023-04-04T02:55:51;2.95;;;2.67;;
31336;SDS011;22846;42.654;23.314;2023-04-04T02:58:17;3.20;;;2.90;;
31336;SDS011;22846;42.654;23.314;2023-04-04T03:00:42;3.05;;;2.53;;
31336;SDS011;22846;42.654;23.314;2023-04-04T03:03:08;3.97;;;3.03;;
31336;SDS011;22846;42.654;23.314;2023-04-04T03:05:33;3.20;;;2.65;;
31336;SDS011;22846;42.654;23.314;2023-04-04T03:07:59;3.63;;;2.85;;
31336;SDS011;22846;42.654;23.314;2023-04-04T03:10:26;3.10;;;2.50;;
31336;SDS011;22846;42.654;23.314;2023-04-04T03:12:56;3.30;;;2.67;;
31336;SDS011;22846;42.654;23.314;2023-04-04T03:15:22;2.90;;;2.50;;
31336;SDS011;22846;42.654;23.314;2023-04-04T03:17:48;3.33;;;2.70;;
31336;SDS011;22846;42.654;23.314;2023-04-04T03:20:13;2.78;;;2.22;;
31336;SDS011;22846;42.654;23.314;2023-04-04T03:22:39;3.75;;;2.60;;
31336;SDS011;22846;42.654;23.314;2023-04-04T03:25:05;3.08;;;2.38;;
31336;SDS011;22846;42.654;23.314;2023-04-04T03:27:31;2.47;;;2.22;;
31336;SDS011;22846;42.654;23.314;2023-04-04T03:29:57;2.97;;;2.35;;
31336;SDS011;22846;42.654;23.314;2023-04-04T03:32:23;2.65;;;2.40;;
31336;SDS011;22846;42.654;23.314;2023-04-04T03:34:49;2.72;;;2.40;;
31336;SDS011;22846;42.654;23.314;2023-04-04T03:37:16;2.70;;;2.30;;
31336;SDS011;22846;42.654;23.314;2023-04-04T03:39:41;2.97;;;2.42;;
31336;SDS011;22846;42.654;23.314;2023-04-04T03:42:07;4.00;;;2.08;;
31336;SDS011;22846;42.654;23.314;2023-04-04T03:44:32;2.83;;;2.13;;
31336;SDS011;22846;42.654;23.314;2023-04-04T03:46:57;2.30;;;2.10;;
31336;SDS011;22846;42.654;23.314;2023-04-04T03:49:23;2.47;;;2.00;;
31336;SDS011;22846;42.654;23.314;2023-04-04T03:51:48;2.42;;;2.22;;
31336;SDS011;22846;42.654;23.314;2023-04-04T03:54:14;2.33;;;2.10;;
31336;SDS011;22846;42.654;23.314;2023-04-04T03:56:39;2.42;;;1.77;;
31336;SDS011;22846;42.654;23.314;2023-04-04T03:59:05;2.15;;;1.95;;
31336;SDS011;22846;42.654;23.314;2023-04-04T04:01:31;2.08;;;1.73;;
31336;SDS011;22846;42.654;23.314;2023-04-04T04:03:56;2.80;;;2.00;;
31336;SDS011;22846;42.654;23.314;2023-04-04T04:06:21;2.38;;;1.85;;
31336;SDS011;22846;42.654;23.314;2023-04-04T04:08:47;1.63;;;1.50;;
31336;SDS011;22846;42.654;23.314;2023-04-04T04:11:12;2.03;;;1.60;;
31336;SDS011;22846;42.654;23.314;2023-04-04T04:13:38;2.08;;;1.70;;
31336;SDS011;22846;42.654;23.314;2023-04-04T04:16:04;1.90;;;1.50;;
31336;SDS011;22846;42.654;23.314;2023-04-04T04:18:30;7.05;;;3.30;;
31336;SDS011;22846;42.654;23.314;2023-04-04T04:20:59;8.45;;;4.38;;
31336;SDS011;22846;42.654;23.314;2023-04-04T04:23:28;8.55;;;4.25;;
31336;SDS011;22846;42.654;23.314;2023-04-04T04:25:54;7.80;;;3.75;;
31336;SDS011;22846;42.654;23.314;2023-04-04T04:28:20;7.88;;;3.10;;
31336;SDS011;22846;42.654;23.314;2023-04-04T04:30:45;6.63;;;3.08;;
31336;SDS011;22846;42.654;23.314;2023-04-04T04:33:11;6.55;;;2.78;;
31336;SDS011;22846;42.654;23.314;2023-04-04T04:35:37;8.27;;;2.80;;
31336;SDS011;22846;42.654;23.314;2023-04-04T04:38:03;12.10;;;3.08;;
31336;SDS011;22846;42.654;23.314;2023-04-04T04:40:30;7.03;;;3.28;;
31336;SDS011;22846;42.654;23.314;2023-04-04T04:42:55;20.77;;;4.68;;
31336;SDS011;22846;42.654;23.314;2023-04-04T04:45:20;15.18;;;4.18;;
31336;SDS011;22846;42.654;23.314;2023-04-04T04:47:46;32.58;;;4.47;;
31336;SDS011;22846;42.654;23.314;2023-04-04T04:50:11;20.35;;;3.63;;
31336;SDS011;22846;42.654;23.314;2023-04-04T04:52:37;15.20;;;3.75;;
31336;SDS011;22846;42.654;23.314;2023-04-04T04:55:03;18.67;;;3.70;;
31336;SDS011;22846;42.654;23.314;2023-04-04T04:57:29;15.23;;;3.25;;
31336;SDS011;22846;42.654;23.314;2023-04-04T04:59:55;11.20;;;3.35;;
31336;SDS011;22846;42.654;23.314;2023-04-04T05:02:21;12.07;;;3.47;;
31336;SDS011;22846;42.654;23.314;2023-04-04T05:04:46;15.18;;;3.85;;
31336;SDS011;22846;42.654;23.314;2023-04-04T05:07:12;11.90;;;4.32;;
31336;SDS011;22846;42.654;23.314;2023-04-04T05:09:37;9.68;;;4.10;;
31336;SDS011;22846;42.654;23.314;2023-04-04T05:12:03;10.85;;;4.47;;
31336;SDS011;22846;42.654;23.314;2023-04-04T05:14:29;10.10;;;2.92;;
31336;SDS011;22846;42.654;23.314;2023-04-04T05:16:54;11.30;;;3.63;;
31336;SDS011;22846;42.654;23.314;2023-04-04T05:19:20;6.05;;;2.80;;
31336;SDS011;22846;42.654;23.314;2023-04-04T05:21:45;7.80;;;2.97;;
31336;SDS011;22846;42.654;23.314;2023-04-04T05:24:11;11.05;;;2.78;;
31336;SDS011;22846;42.654;23.314;2023-04-04T05:26:37;7.60;;;3.03;;
31336;SDS011;22846;42.654;23.314;2023-04-04T05:29:02;7.82;;;3.42;;
31336;SDS011;22846;42.654;23.314;2023-04-04T05:31:28;10.60;;;3.13;;
31336;SDS011;22846;42.654;23.314;2023-04-04T05:33:53;7.65;;;3.03;;
31336;SDS011;22846;42.654;23.314;2023-04-04T05:36:18;7.60;;;2.80;;
31336;SDS011;22846;42.654;23.314;2023-04-04T05:38:44;6.85;;;3.20;;
31336;SDS011;22846;42.654;23.314;2023-04-04T05:41:09;6.10;;;3.15;;
31336;SDS011;22846;42.654;23.314;2023-04-04T05:43:35;8.50;;;3.08;;
31336;SDS011;22846;42.654;23.314;2023-04-04T05:46:00;10.73;;;3.00;;
31336;SDS011;22846;42.654;23.314;2023-04-04T05:48:26;5.65;;;2.88;;
31336;SDS011;22846;42.654;23.314;2023-04-04T05:50:51;6.25;;;3.05;;
31336;SDS011;22846;42.654;23.314;2023-04-04T05:53:17;6.60;;;2.67;;
31336;SDS011;22846;42.654;23.314;2023-04-04T05:55:42;9.27;;;3.45;;
31336;SDS011;22846;42.654;23.314;2023-04-04T05:58:08;7.25;;;2.78;;
31336;SDS011;22846;42.654;23.314;2023-04-04T06:00:33;6.78;;;3.03;;
31336;SDS011;22846;42.654;23.314;2023-04-04T06:02:58;6.32;;;2.72;;
31336;SDS011;22846;42.654;23.314;2023-04-04T06:05:24;6.22;;;2.75;;
31336;SDS011;22846;42.654;23.314;2023-04-04T06:07:49;6.03;;;2.90;;
31336;SDS011;22846;42.654;23.314;2023-04-04T06:10:15;5.40;;;2.47;;
31336;SDS011;22846;42.654;23.314;2023-04-04T06:12:40;5.38;;;2.72;;
31336;SDS011;22846;42.654;23.314;2023-04-04T06:15:06;7.82;;;3.05;;
31336;SDS011;22846;42.654;23.314;2023-04-04T06:17:32;5.80;;;2.80;;
31336;SDS011;22846;42.654;23.314;2023-04-04T06:19:57;4.75;;;2.35;;
31336;SDS011;22846;42.654;23.314;2023-04-04T06:22:23;5.00;;;2.65;;
31336;SDS011;22846;42.654;23.314;2023-04-04T06:24:48;7.40;;;2.50;;
31336;SDS011;22846;42.654;23.314;2023-04-04T06:27:13;7.18;;;2.92;;
31336;SDS011;22846;42.654;23.314;2023-04-04T06:29:39;8.48;;;2.35;;
31336;SDS011;22846;42.654;23.314;2023-04-04T06:32:05;5.50;;;2.40;;
31336;SDS011;22846;42.654;23.314;2023-04-04T06:34:31;4.95;;;2.47;;
31336;SDS011;22846;42.654;23.314;2023-04-04T06:36:56;5.72;;;2.70;;
31336;SDS011;22846;42.654;23.314;2023-04-04T06:39:21;6.95;;;2.67;;
31336;SDS011;22846;42.654;23.314;2023-04-04T06:41:47;7.50;;;2.97;;
31336;SDS011;22846;42.654;23.314;2023-04-04T06:44:12;5.20;;;2.33;;
31336;SDS011;22846;42.654;23.314;2023-04-04T06:46:38;5.07;;;2.30;;
31336;SDS011;22846;42.654;23.314;2023-04-04T06:49:04;6.35;;;2.30;;
31336;SDS011;22846;42.654;23.314;2023-04-04T06:51:30;5.25;;;2.53;;
31336;SDS011;22846;42.654;23.314;2023-04-04T06:53:58;4.47;;;2.53;;
31336;SDS011;22846;42.654;23.314;2023-04-04T06:56:25;5.15;;;2.33;;
31336;SDS011;22846;42.654;23.314;2023-04-04T06:58:51;4.53;;;2.20;;
31336;SDS011;22846;42.654;23.314;2023-04-04T07:01:16;4.50;;;2.30;;
31336;SDS011;22846;42.654;23.314;2023-04-04T07:03:42;3.38;;;1.83;;
31336;SDS011;22846;42.654;23.314;2023-04-04T07:06:08;3.58;;;2.22;;
31336;SDS011;22846;42.654;23.314;2023-04-04T07:08:34;3.30;;;2.13;;
31336;SDS011;22846;42.654;23.314;2023-04-04T07:11:00;4.22;;;2.00;;
31336;SDS011;22846;42.654;23.314;2023-04-04T07:13:25;5.03;;;2.15;;
31336;SDS011;22846;42.654;23.314;2023-04-04T07:15:51;3.17;;;1.80;;
31336;SDS011;22846;42.654;23.314;2023-04-04T07:18:16;4.03;;;2.08;;
31336;SDS011;22846;42.654;23.314;2023-04-04T07:20:44;3.30;;;1.90;;
31336;SDS011;22846;42.654;23.314;2023-04-04T07:23:10;3.33;;;2.00;;
31336;SDS011;22846;42.654;23.314;2023-04-04T07:25:36;4.68;;;2.05;;
31336;SDS011;22846;42.654;23.314;2023-04-04T07:28:02;3.05;;;2.00;;
31336;SDS011;22846;42.654;23.314;2023-04-04T07:30:28;3.95;;;2.00;;
31336;SDS011;22846;42.654;23.314;2023-04-04T07:32:57;3.30;;;2.00;;
31336;SDS011;22846;42.654;23.314;2023-04-04T07:35:23;3.63;;;1.90;;
31336;SDS011;22846;42.654;23.314;2023-04-04T07:37:48;3.97;;;1.85;;
31336;SDS011;22846;42.654;23.314;2023-04-04T07:40:15;3.13;;;1.90;;
31336;SDS011;22846;42.654;23.314;2023-04-04T07:42:46;3.00;;;1.80;;
31336;SDS011;22846;42.654;23.314;2023-04-04T07:45:16;4.43;;;1.73;;
31336;SDS011;22846;42.654;23.314;2023-04-04T07:47:42;4.35;;;1.80;;
31336;SDS011;22846;42.654;23.314;2023-04-04T07:50:09;2.75;;;1.65;;
31336;SDS011;22846;42.654;23.314;2023-04-04T07:52:35;3.53;;;1.63;;
31336;SDS011;22846;42.654;23.314;2023-04-04T07:55:00;3.25;;;2.00;;
31336;SDS011;22846;42.654;23.314;2023-04-04T07:57:27;2.85;;;1.60;;
31336;SDS011;22846;42.654;23.314;2023-04-04T07:59:53;2.78;;;1.60;;
31336;SDS011;22846;42.654;23.314;2023-04-04T08:02:18;2.65;;;1.80;;
31336;SDS011;22846;42.654;23.314;2023-04-04T08:04:43;3.58;;;1.75;;
31336;SDS011;22846;42.654;23.314;2023-04-04T08:07:09;2.08;;;1.48;;
31336;SDS011;22846;42.654;23.314;2023-04-04T08:09:35;2.50;;;1.67;;
31336;SDS011;22846;42.654;23.314;2023-04-04T08:12:00;3.13;;;1.90;;
31336;SDS011;22846;42.654;23.314;2023-04-04T08:14:27;2.58;;;1.50;;
31336;SDS011;22846;42.654;23.314;2023-04-04T08:16:52;2.58;;;1.60;;
31336;SDS011;22846;42.654;23.314;2023-04-04T08:19:18;2.97;;;1.60;;
31336;SDS011;22846;42.654;23.314;2023-04-04T08:21:44;3.88;;;1.70;;
31336;SDS011;22846;42.654;23.314;2023-04-04T08:24:10;4.65;;;1.63;;
31336;SDS011;22846;42.654;23.314;2023-04-04T08:26:36;2.15;;;1.45;;
31336;SDS011;22846;42.654;23.314;2023-04-04T08:29:01;3.30;;;1.35;;
31336;SDS011;22846;42.654;23.314;2023-04-04T08:31:27;2.53;;;1.50;;
31336;SDS011;22846;42.654;23.314;2023-04-04T08:33:53;2.38;;;1.30;;
31336;SDS011;22846;42.654;23.314;2023-04-04T08:36:19;4.18;;;1.67;;
31336;SDS011;22846;42.654;23.314;2023-04-04T08:38:45;4.70;;;1.67;;
31336;SDS011;22846;42.654;23.314;2023-04-04T08:41:11;2.47;;;1.50;;
31336;SDS011;22846;42.654;23.314;2023-04-04T08:43:37;1.95;;;1.30;;
31336;SDS011;22846;42.654;23.314;2023-04-04T08:46:05;2.35;;;1.30;;
31336;SDS011;22846;42.654;23.314;2023-04-04T08:48:32;2.05;;;1.50;;
31336;SDS011;22846;42.654;23.314;2023-04-04T08:50:59;2.72;;;1.50;;
31336;SDS011;22846;42.654;23.314;2023-04-04T08:53:27;2.03;;;1.55;;
31336;SDS011;22846;42.654;23.314;2023-04-04T08:55:53;2.38;;;1.60;;
31336;SDS011;22846;42.654;23.314;2023-04-04T08:58:19;2.83;;;1.23;;
31336;SDS011;22846;42.654;23.314;2023-04-04T09:00:45;1.92;;;1.30;;
31336;SDS011;22846;42.654;23.314;2023-04-04T09:03:22;1.80;;;1.40;;
31336;SDS011;22846;42.654;23.314;2023-04-04T09:05:48;3.35;;;1.25;;
31336;SDS011;22846;42.654;23.314;2023-04-04T09:08:15;1.90;;;1.40;;
31336;SDS011;22846;42.654;23.314;2023-04-04T09:10:42;1.52;;;1.20;;
31336;SDS011;22846;42.654;23.314;2023-04-04T09:13:09;1.90;;;1.33;;
31336;SDS011;22846;42.654;23.314;2023-04-04T09:15:35;1.98;;;1.23;;
31336;SDS011;22846;42.654;23.314;2023-04-04T09:18:03;1.75;;;1.20;;
31336;SDS011;22846;42.654;23.314;2023-04-04T09:22:57;1.85;;;1.10;;
31336;SDS011;22846;42.654;23.314;2023-04-04T09:25:22;1.63;;;1.40;;
31336;SDS011;22846;42.654;23.314;2023-04-04T09:27:48;1.50;;;1.20;;
31336;SDS011;22846;42.654;23.314;2023-04-04T09:30:14;2.03;;;1.30;;
31336;SDS011;22846;42.654;23.314;2023-04-04T09:32:39;1.90;;;1.20;;
31336;SDS011;22846;42.654;23.314;2023-04-04T09:35:05;1.40;;;1.23;;
31336;SDS011;22846;42.654;23.314;2023-04-04T09:37:31;2.42;;;1.52;;
31336;SDS011;22846;42.654;23.314;2023-04-04T09:39:56;1.83;;;1.13;;
31336;SDS011;22846;42.654;23.314;2023-04-04T09:42:22;2.97;;;1.30;;
31336;SDS011;22846;42.654;23.314;2023-04-04T09:44:52;2.17;;;1.42;;
31336;SDS011;22846;42.654;23.314;2023-04-04T09:47:25;2.03;;;1.35;;
31336;SDS011;22846;42.654;23.314;2023-04-04T09:49:52;2.10;;;1.40;;
31336;SDS011;22846;42.654;23.314;2023-04-04T09:52:18;2.28;;;1.20;;
31336;SDS011;22846;42.654;23.314;2023-04-04T09:54:57;3.72;;;1.30;;
31336;SDS011;22846;42.654;23.314;2023-04-04T09:57:45;1.55;;;1.00;;
31336;SDS011;22846;42.654;23.314;2023-04-04T10:00:10;1.63;;;1.20;;
31336;SDS011;22846;42.654;23.314;2023-04-04T10:02:37;1.58;;;1.20;;
31336;SDS011;22846;42.654;23.314;2023-04-04T10:05:08;1.65;;;1.20;;
31336;SDS011;22846;42.654;23.314;2023-04-04T10:07:36;2.28;;;1.40;;
31336;SDS011;22846;42.654;23.314;2023-04-04T10:10:06;2.42;;;1.20;;
31336;SDS011;22846;42.654;23.314;2023-04-04T10:12:33;1.73;;;1.20;;
31336;SDS011;22846;42.654;23.314;2023-04-04T10:14:59;2.38;;;1.17;;
31336;SDS011;22846;42.654;23.314;2023-04-04T10:17:58;1.70;;;1.13;;
31336;SDS011;22846;42.654;23.314;2023-04-04T10:20:17;1.60;;;1.00;;
31336;SDS011;22846;42.654;23.314;2023-04-04T10:22:44;1.77;;;1.08;;
31336;SDS011;22846;42.654;23.314;2023-04-04T10:25:10;3.17;;;1.30;;
31336;SDS011;22846;42.654;23.314;2023-04-04T10:27:36;1.73;;;1.10;;
31336;SDS011;22846;42.654;23.314;2023-04-04T10:30:02;2.00;;;1.17;;
31336;SDS011;22846;42.654;23.314;2023-04-04T10:35:16;1.70;;;1.17;;
31336;SDS011;22846;42.654;23.314;2023-04-04T10:37:43;2.33;;;1.10;;
31336;SDS011;22846;42.654;23.314;2023-04-04T10:40:16;1.30;;;1.02;;
31336;SDS011;22846;42.654;23.314;2023-04-04T10:42:45;1.60;;;1.23;;
31336;SDS011;22846;42.654;23.314;2023-04-04T10:45:14;2.15;;;1.23;;
31336;SDS011;22846;42.654;23.314;2023-04-04T10:47:40;1.65;;;1.30;;
31336;SDS011;22846;42.654;23.314;2023-04-04T10:50:07;1.85;;;1.30;;
31336;SDS011;22846;42.654;23.314;2023-04-04T10:52:36;2.03;;;1.50;;
31336;SDS011;22846;42.654;23.314;2023-04-04T10:55:04;1.30;;;1.10;;
31336;SDS011;22846;42.654;23.314;2023-04-04T10:57:41;2.00;;;1.40;;
31336;SDS011;22846;42.654;23.314;2023-04-04T11:00:14;2.85;;;1.45;;
31336;SDS011;22846;42.654;23.314;2023-04-04T11:02:52;4.15;;;1.85;;
31336;SDS011;22846;42.654;23.314;2023-04-04T11:05:31;3.80;;;1.88;;
31336;SDS011;22846;42.654;23.314;2023-04-04T11:08:05;2.92;;;1.55;;
31336;SDS011;22846;42.654;23.314;2023-04-04T11:10:40;4.32;;;1.88;;
31336;SDS011;22846;42.654;23.314;2023-04-04T11:13:10;4.03;;;1.60;;
31336;SDS011;22846;42.654;23.314;2023-04-04T11:15:59;3.50;;;1.70;;
31336;SDS011;22846;42.654;23.314;2023-04-04T11:21:08;3.25;;;1.67;;
31336;SDS011;22846;42.654;23.314;2023-04-04T11:24:23;4.85;;;2.03;;
31336;SDS011;22846;42.654;23.314;2023-04-04T11:28:57;5.30;;;2.00;;
31336;SDS011;22846;42.654;23.314;2023-04-04T11:31:44;4.07;;;1.92;;
31336;SDS011;22846;42.654;23.314;2023-04-04T11:34:10;4.90;;;2.20;;
31336;SDS011;22846;42.654;23.314;2023-04-04T11:44:41;4.68;;;1.88;;
31336;SDS011;22846;42.654;23.314;2023-04-04T11:47:12;4.32;;;2.05;;
31336;SDS011;22846;42.654;23.314;2023-04-04T11:49:39;5.70;;;2.10;;
31336;SDS011;22846;42.654;23.314;2023-04-04T11:52:06;3.70;;;1.90;;
31336;SDS011;22846;42.654;23.314;2023-04-04T11:54:33;4.53;;;1.92;;
31336;SDS011;22846;42.654;23.314;2023-04-04T11:56:59;3.50;;;1.95;;
31336;SDS011;22846;42.654;23.314;2023-04-04T11:59:26;3.67;;;1.75;;
31336;SDS011;22846;42.654;23.314;2023-04-04T12:01:51;4.95;;;2.17;;
31336;SDS011;22846;42.654;23.314;2023-04-04T12:04:19;3.45;;;1.80;;
31336;SDS011;22846;42.654;23.314;2023-04-04T12:06:48;4.80;;;1.85;;
31336;SDS011;22846;42.654;23.314;2023-04-04T12:09:16;3.88;;;1.83;;
31336;SDS011;22846;42.654;23.314;2023-04-04T12:11:44;3.40;;;1.90;;
31336;SDS011;22846;42.654;23.314;2023-04-04T12:14:17;3.03;;;1.88;;
31336;SDS011;22846;42.654;23.314;2023-04-04T12:16:44;4.18;;;2.20;;
31336;SDS011;22846;42.654;23.314;2023-04-04T12:19:11;3.75;;;1.70;;
31336;SDS011;22846;42.654;23.314;2023-04-04T12:21:37;3.13;;;1.90;;
31336;SDS011;22846;42.654;23.314;2023-04-04T12:24:02;3.42;;;2.00;;
31336;SDS011;22846;42.654;23.314;2023-04-04T12:26:28;3.08;;;1.98;;
31336;SDS011;22846;42.654;23.314;2023-04-04T12:28:56;4.70;;;2.00;;
31336;SDS011;22846;42.654;23.314;2023-04-04T12:31:23;4.63;;;1.80;;
31336;SDS011;22846;42.654;23.314;2023-04-04T12:33:50;3.10;;;1.75;;
31336;SDS011;22846;42.654;23.314;2023-04-04T12:36:19;4.03;;;2.28;;
31336;SDS011;22846;42.654;23.314;2023-04-04T12:39:00;3.67;;;1.95;;
31336;SDS011;22846;42.654;23.314;2023-04-04T12:41:29;3.22;;;1.95;;
31336;SDS011;22846;42.654;23.314;2023-04-04T12:44:04;4.50;;;2.28;;
31336;SDS011;22846;42.654;23.314;2023-04-04T12:46:37;3.55;;;2.00;;
31336;SDS011;22846;42.654;23.314;2023-04-04T12:49:10;2.42;;;1.75;;
31336;SDS011;22846;42.654;23.314;2023-04-04T12:51:36;2.78;;;2.03;;
31336;SDS011;22846;42.654;23.314;2023-04-04T12:54:05;2.78;;;1.77;;
31336;SDS011;22846;42.654;23.314;2023-04-04T12:56:32;3.10;;;1.95;;
31336;SDS011;22846;42.654;23.314;2023-04-04T12:59:00;3.40;;;2.00;;
31336;SDS011;22846;42.654;23.314;2023-04-04T13:01:28;3.80;;;1.75;;
31336;SDS011;22846;42.654;23.314;2023-04-04T13:03:54;3.83;;;1.80;;
31336;SDS011;22846;42.654;23.314;2023-04-04T13:06:19;3.33;;;1.83;;
31336;SDS011;22846;42.654;23.314;2023-04-04T13:08:49;3.25;;;1.80;;
31336;SDS011;22846;42.654;23.314;2023-04-04T13:11:15;2.50;;;1.65;;
31336;SDS011;22846;42.654;23.314;2023-04-04T13:13:41;3.28;;;1.85;;
31336;SDS011;22846;42.654;23.314;2023-04-04T13:18:38;3.78;;;1.83;;
31336;SDS011;22846;42.654;23.314;2023-04-04T13:21:07;3.95;;;1.73;;
31336;SDS011;22846;42.654;23.314;2023-04-04T13:23:38;3.63;;;2.05;;
31336;SDS011;22846;42.654;23.314;2023-04-04T13:26:08;2.47;;;1.90;;
31336;SDS011;22846;42.654;23.314;2023-04-04T13:28:34;3.30;;;1.77;;
31336;SDS011;22846;42.654;23.314;2023-04-04T13:31:01;2.60;;;1.63;;
31336;SDS011;22846;42.654;23.314;2023-04-04T13:33:30;2.67;;;1.70;;
31336;SDS011;22846;42.654;23.314;2023-04-04T13:35:55;3.53;;;1.90;;
31336;SDS011;22846;42.654;23.314;2023-04-04T13:38:24;4.28;;;2.00;;
31336;SDS011;22846;42.654;23.314;2023-04-04T13:40:51;3.10;;;2.05;;
31336;SDS011;22846;42.654;23.314;2023-04-04T13:43:16;2.95;;;1.65;;
31336;SDS011;22846;42.654;23.314;2023-04-04T13:45:42;2.53;;;1.52;;
31336;SDS011;22846;42.654;23.314;2023-04-04T13:48:08;3.15;;;1.88;;
31336;SDS011;22846;42.654;23.314;2023-04-04T13:50:34;3.40;;;2.00;;
31336;SDS011;22846;42.654;23.314;2023-04-04T13:53:01;3.03;;;1.73;;
31336;SDS011;22846;42.654;23.314;2023-04-04T13:55:26;4.90;;;1.90;;
31336;SDS011;22846;42.654;23.314;2023-04-04T13:57:52;2.72;;;1.70;;
31336;SDS011;22846;42.654;23.314;2023-04-04T14:00:17;4.05;;;1.67;;
31336;SDS011;22846;42.654;23.314;2023-04-04T14:02:43;3.42;;;1.85;;
31336;SDS011;22846;42.654;23.314;2023-04-04T14:05:08;2.33;;;1.58;;
31336;SDS011;22846;42.654;23.314;2023-04-04T14:07:35;2.88;;;1.52;;
31336;SDS011;22846;42.654;23.314;2023-04-04T14:10:02;2.72;;;1.45;;
31336;SDS011;22846;42.654;23.314;2023-04-04T14:12:27;2.83;;;1.70;;
31336;SDS011;22846;42.654;23.314;2023-04-04T14:14:53;1.63;;;1.30;;
31336;SDS011;22846;42.654;23.314;2023-04-04T14:17:18;2.58;;;1.60;;
31336;SDS011;22846;42.654;23.314;2023-04-04T14:19:44;1.50;;;1.25;;
31336;SDS011;22846;42.654;23.314;2023-04-04T14:22:09;3.88;;;1.88;;
31336;SDS011;22846;42.654;23.314;2023-04-04T14:24:35;1.55;;;1.27;;
31336;SDS011;22846;42.654;23.314;2023-04-04T14:27:00;2.53;;;1.50;;
31336;SDS011;22846;42.654;23.314;2023-04-04T14:29:26;2.92;;;1.48;;
31336;SDS011;22846;42.654;23.314;2023-04-04T14:31:51;1.85;;;1.40;;
31336;SDS011;22846;42.654;23.314;2023-04-04T14:34:19;3.17;;;1.50;;
31336;SDS011;22846;42.654;23.314;2023-04-04T14:36:45;2.58;;;1.40;;
31336;SDS011;22846;42.654;23.314;2023-04-04T14:39:10;2.92;;;1.58;;
31336;SDS011;22846;42.654;23.314;2023-04-04T14:41:36;1.60;;;1.27;;
31336;SDS011;22846;42.654;23.314;2023-04-04T14:44:02;1.27;;;1.10;;
31336;SDS011;22846;42.654;23.314;2023-04-04T14:46:27;3.53;;;1.40;;
31336;SDS011;22846;42.654;23.314;2023-04-04T14:48:52;2.92;;;1.20;;
31336;SDS011;22846;42.654;23.314;2023-04-04T14:51:18;1.45;;;1.30;;
31336;SDS011;22846;42.654;23.314;2023-04-04T14:53:44;2.33;;;1.30;;
31336;SDS011;22846;42.654;23.314;2023-04-04T14:56:10;3.05;;;1.50;;
31336;SDS011;22846;42.654;23.314;2023-04-04T14:58:35;1.63;;;1.30;;
31336;SDS011;22846;42.654;23.314;2023-04-04T15:01:01;1.52;;;1.20;;